Aviation Digital Data Service (ADDS)

Output produced by METARs form (1614 UTC 30 October 2020)
found at http://www.aviationweather.gov/metar/data/
 
KGXY 301556Z AUTO 00000KT 10SM CLR 04/M01 A3024 RMK AO2 SLP263 T00391006